sensor_id;sensor_type;location;lat;lon;timestamp;P1;durP1;ratioP1;P2;durP2;ratioP2
22606;SDS011;11470;20.968;105.834;2022-07-17T00:02:53;18.75;;;10.40;;
22606;SDS011;11470;20.968;105.834;2022-07-17T00:07:58;20.15;;;12.30;;
22606;SDS011;11470;20.968;105.834;2022-07-17T00:13:05;20.67;;;10.43;;
22606;SDS011;11470;20.968;105.834;2022-07-17T00:18:11;25.88;;;14.68;;
22606;SDS011;11470;20.968;105.834;2022-07-17T00:23:16;17.93;;;11.07;;
22606;SDS011;11470;20.968;105.834;2022-07-17T00:28:23;20.88;;;12.80;;
22606;SDS011;11470;20.968;105.834;2022-07-17T00:33:29;15.52;;;10.20;;
22606;SDS011;11470;20.968;105.834;2022-07-17T00:38:34;17.95;;;10.75;;
22606;SDS011;11470;20.968;105.834;2022-07-17T00:48:45;18.73;;;12.83;;
22606;SDS011;11470;20.968;105.834;2022-07-17T00:53:50;16.45;;;10.32;;
22606;SDS011;11470;20.968;105.834;2022-07-17T00:58:57;22.65;;;13.10;;
22606;SDS011;11470;20.968;105.834;2022-07-17T01:04:02;31.52;;;16.33;;
22606;SDS011;11470;20.968;105.834;2022-07-17T01:09:11;14.57;;;9.35;;
22606;SDS011;11470;20.968;105.834;2022-07-17T01:14:17;22.67;;;16.50;;
22606;SDS011;11470;20.968;105.834;2022-07-17T01:19:24;27.65;;;17.05;;
22606;SDS011;11470;20.968;105.834;2022-07-17T01:24:29;17.30;;;12.95;;
22606;SDS011;11470;20.968;105.834;2022-07-17T01:29:36;17.98;;;12.68;;
22606;SDS011;11470;20.968;105.834;2022-07-17T01:34:43;20.73;;;12.88;;
22606;SDS011;11470;20.968;105.834;2022-07-17T01:39:48;19.90;;;12.32;;
22606;SDS011;11470;20.968;105.834;2022-07-17T01:45:00;22.98;;;13.30;;
22606;SDS011;11470;20.968;105.834;2022-07-17T01:55:12;15.93;;;10.87;;
22606;SDS011;11470;20.968;105.834;2022-07-17T02:00:19;21.40;;;15.25;;
22606;SDS011;11470;20.968;105.834;2022-07-17T02:05:27;17.60;;;10.63;;
22606;SDS011;11470;20.968;105.834;2022-07-17T02:10:36;20.10;;;12.27;;
22606;SDS011;11470;20.968;105.834;2022-07-17T02:15:43;19.90;;;13.05;;
22606;SDS011;11470;20.968;105.834;2022-07-17T02:20:49;20.73;;;13.10;;
22606;SDS011;11470;20.968;105.834;2022-07-17T02:25:55;19.23;;;12.63;;
22606;SDS011;11470;20.968;105.834;2022-07-17T02:31:00;19.05;;;11.75;;
22606;SDS011;11470;20.968;105.834;2022-07-17T02:36:05;18.95;;;13.05;;
22606;SDS011;11470;20.968;105.834;2022-07-17T02:46:15;16.42;;;12.23;;
22606;SDS011;11470;20.968;105.834;2022-07-17T02:51:22;16.30;;;12.48;;
22606;SDS011;11470;20.968;105.834;2022-07-17T02:56:27;18.20;;;11.23;;
22606;SDS011;11470;20.968;105.834;2022-07-17T03:01:32;17.85;;;12.38;;
22606;SDS011;11470;20.968;105.834;2022-07-17T03:06:37;17.60;;;11.57;;
22606;SDS011;11470;20.968;105.834;2022-07-17T03:11:43;22.20;;;13.90;;
22606;SDS011;11470;20.968;105.834;2022-07-17T03:21:53;15.35;;;12.25;;
22606;SDS011;11470;20.968;105.834;2022-07-17T03:26:58;22.88;;;14.88;;
22606;SDS011;11470;20.968;105.834;2022-07-17T03:32:05;19.67;;;14.52;;
22606;SDS011;11470;20.968;105.834;2022-07-17T03:37:10;21.77;;;13.52;;
22606;SDS011;11470;20.968;105.834;2022-07-17T03:42:17;25.50;;;15.30;;
22606;SDS011;11470;20.968;105.834;2022-07-17T03:47:22;19.35;;;14.93;;
22606;SDS011;11470;20.968;105.834;2022-07-17T03:52:27;18.80;;;13.93;;
22606;SDS011;11470;20.968;105.834;2022-07-17T03:57:34;21.55;;;15.90;;
22606;SDS011;11470;20.968;105.834;2022-07-17T04:02:41;23.17;;;13.75;;
22606;SDS011;11470;20.968;105.834;2022-07-17T04:07:47;22.58;;;15.55;;
22606;SDS011;11470;20.968;105.834;2022-07-17T04:17:58;25.92;;;18.88;;
22606;SDS011;11470;20.968;105.834;2022-07-17T04:23:04;23.23;;;15.98;;
22606;SDS011;11470;20.968;105.834;2022-07-17T04:28:09;23.00;;;15.57;;
22606;SDS011;11470;20.968;105.834;2022-07-17T04:33:16;21.20;;;14.80;;
22606;SDS011;11470;20.968;105.834;2022-07-17T04:38:23;15.77;;;12.93;;
22606;SDS011;11470;20.968;105.834;2022-07-17T04:48:33;20.20;;;15.13;;
22606;SDS011;11470;20.968;105.834;2022-07-17T04:53:40;20.23;;;14.35;;
22606;SDS011;11470;20.968;105.834;2022-07-17T05:03:50;22.08;;;17.52;;
22606;SDS011;11470;20.968;105.834;2022-07-17T05:08:57;23.65;;;15.57;;
22606;SDS011;11470;20.968;105.834;2022-07-17T05:14:02;22.02;;;16.30;;
22606;SDS011;11470;20.968;105.834;2022-07-17T05:19:08;24.83;;;15.32;;
22606;SDS011;11470;20.968;105.834;2022-07-17T05:24:13;20.85;;;14.95;;
22606;SDS011;11470;20.968;105.834;2022-07-17T05:29:20;20.13;;;16.02;;
22606;SDS011;11470;20.968;105.834;2022-07-17T05:39:30;16.63;;;11.38;;
22606;SDS011;11470;20.968;105.834;2022-07-17T05:44:35;18.10;;;14.60;;
22606;SDS011;11470;20.968;105.834;2022-07-17T05:49:41;16.05;;;12.57;;
22606;SDS011;11470;20.968;105.834;2022-07-17T05:54:47;12.57;;;10.82;;
22606;SDS011;11470;20.968;105.834;2022-07-17T05:59:52;11.95;;;8.77;;
22606;SDS011;11470;20.968;105.834;2022-07-17T06:04:57;10.57;;;9.35;;
22606;SDS011;11470;20.968;105.834;2022-07-17T06:10:03;15.38;;;11.30;;
22606;SDS011;11470;20.968;105.834;2022-07-17T06:15:09;12.60;;;10.23;;
22606;SDS011;11470;20.968;105.834;2022-07-17T06:20:16;12.27;;;8.05;;
22606;SDS011;11470;20.968;105.834;2022-07-17T06:25:22;9.57;;;5.85;;
22606;SDS011;11470;20.968;105.834;2022-07-17T06:30:28;10.15;;;7.75;;
22606;SDS011;11470;20.968;105.834;2022-07-17T06:35:34;10.90;;;7.90;;
22606;SDS011;11470;20.968;105.834;2022-07-17T06:40:46;9.90;;;7.63;;
22606;SDS011;11470;20.968;105.834;2022-07-17T06:50:59;8.63;;;6.07;;
22606;SDS011;11470;20.968;105.834;2022-07-17T06:56:05;8.55;;;5.60;;
22606;SDS011;11470;20.968;105.834;2022-07-17T07:01:11;8.65;;;6.60;;
22606;SDS011;11470;20.968;105.834;2022-07-17T07:06:17;8.43;;;6.22;;
22606;SDS011;11470;20.968;105.834;2022-07-17T07:11:23;7.65;;;5.63;;
22606;SDS011;11470;20.968;105.834;2022-07-17T07:16:29;6.78;;;5.68;;
22606;SDS011;11470;20.968;105.834;2022-07-17T07:26:39;7.57;;;5.57;;
22606;SDS011;11470;20.968;105.834;2022-07-17T07:31:44;7.28;;;5.53;;
22606;SDS011;11470;20.968;105.834;2022-07-17T07:36:51;6.88;;;4.93;;
22606;SDS011;11470;20.968;105.834;2022-07-17T07:47:03;7.13;;;5.28;;
22606;SDS011;11470;20.968;105.834;2022-07-17T07:52:08;8.82;;;5.82;;
22606;SDS011;11470;20.968;105.834;2022-07-17T07:57:14;7.40;;;5.75;;
22606;SDS011;11470;20.968;105.834;2022-07-17T08:02:20;8.18;;;5.35;;
22606;SDS011;11470;20.968;105.834;2022-07-17T08:07:25;5.88;;;5.00;;
22606;SDS011;11470;20.968;105.834;2022-07-17T08:12:32;11.75;;;5.10;;
22606;SDS011;11470;20.968;105.834;2022-07-17T08:17:54;10.02;;;5.32;;
22606;SDS011;11470;20.968;105.834;2022-07-17T08:22:59;11.35;;;5.00;;
22606;SDS011;11470;20.968;105.834;2022-07-17T08:28:07;9.38;;;5.32;;
22606;SDS011;11470;20.968;105.834;2022-07-17T08:33:13;8.98;;;4.80;;
22606;SDS011;11470;20.968;105.834;2022-07-17T08:38:20;7.80;;;5.00;;
22606;SDS011;11470;20.968;105.834;2022-07-17T08:43:26;6.60;;;4.57;;
22606;SDS011;11470;20.968;105.834;2022-07-17T08:48:32;7.55;;;4.90;;
22606;SDS011;11470;20.968;105.834;2022-07-17T08:53:40;10.05;;;5.85;;
22606;SDS011;11470;20.968;105.834;2022-07-17T08:58:48;8.85;;;5.13;;
22606;SDS011;11470;20.968;105.834;2022-07-17T09:03:55;6.43;;;5.22;;
22606;SDS011;11470;20.968;105.834;2022-07-17T09:09:11;9.10;;;5.25;;
22606;SDS011;11470;20.968;105.834;2022-07-17T09:14:18;8.70;;;3.85;;
22606;SDS011;11470;20.968;105.834;2022-07-17T09:19:25;7.63;;;4.75;;
22606;SDS011;11470;20.968;105.834;2022-07-17T09:30:07;7.75;;;5.03;;
22606;SDS011;11470;20.968;105.834;2022-07-17T09:35:15;7.20;;;5.07;;
22606;SDS011;11470;20.968;105.834;2022-07-17T09:45:45;9.95;;;6.00;;
22606;SDS011;11470;20.968;105.834;2022-07-17T09:50:52;6.60;;;4.65;;
22606;SDS011;11470;20.968;105.834;2022-07-17T09:55:58;8.23;;;7.05;;
22606;SDS011;11470;20.968;105.834;2022-07-17T10:01:07;10.15;;;6.95;;
22606;SDS011;11470;20.968;105.834;2022-07-17T10:06:13;9.18;;;7.50;;
22606;SDS011;11470;20.968;105.834;2022-07-17T10:11:23;11.88;;;7.55;;
22606;SDS011;11470;20.968;105.834;2022-07-17T10:16:31;7.55;;;5.78;;
22606;SDS011;11470;20.968;105.834;2022-07-17T10:21:37;12.05;;;8.27;;
22606;SDS011;11470;20.968;105.834;2022-07-17T10:26:43;11.70;;;7.60;;
22606;SDS011;11470;20.968;105.834;2022-07-17T10:31:51;17.20;;;8.80;;
22606;SDS011;11470;20.968;105.834;2022-07-17T10:36:56;10.70;;;8.48;;
22606;SDS011;11470;20.968;105.834;2022-07-17T10:42:02;14.05;;;10.02;;
22606;SDS011;11470;20.968;105.834;2022-07-17T10:47:07;12.18;;;9.52;;
22606;SDS011;11470;20.968;105.834;2022-07-17T10:52:14;12.77;;;9.48;;
22606;SDS011;11470;20.968;105.834;2022-07-17T10:57:19;18.05;;;11.85;;
22606;SDS011;11470;20.968;105.834;2022-07-17T11:02:28;16.02;;;11.73;;
22606;SDS011;11470;20.968;105.834;2022-07-17T11:08:05;8.00;;;5.43;;
22606;SDS011;11470;20.968;105.834;2022-07-17T11:13:14;13.52;;;9.07;;
22606;SDS011;11470;20.968;105.834;2022-07-17T11:18:23;17.50;;;11.88;;
22606;SDS011;11470;20.968;105.834;2022-07-17T11:23:30;19.90;;;13.98;;
22606;SDS011;11470;20.968;105.834;2022-07-17T11:28:38;24.35;;;15.15;;
22606;SDS011;11470;20.968;105.834;2022-07-17T11:39:01;18.92;;;11.63;;
22606;SDS011;11470;20.968;105.834;2022-07-17T11:44:11;22.75;;;15.60;;
22606;SDS011;11470;20.968;105.834;2022-07-17T11:49:29;22.13;;;13.98;;
22606;SDS011;11470;20.968;105.834;2022-07-17T11:54:51;20.92;;;14.52;;
22606;SDS011;11470;20.968;105.834;2022-07-17T12:00:07;20.90;;;13.32;;
22606;SDS011;11470;20.968;105.834;2022-07-17T12:05:13;18.55;;;10.75;;
22606;SDS011;11470;20.968;105.834;2022-07-17T12:10:33;19.98;;;10.98;;
22606;SDS011;11470;20.968;105.834;2022-07-17T12:15:44;22.55;;;13.35;;
22606;SDS011;11470;20.968;105.834;2022-07-17T12:20:53;23.20;;;14.48;;
22606;SDS011;11470;20.968;105.834;2022-07-17T12:26:05;19.92;;;14.02;;
22606;SDS011;11470;20.968;105.834;2022-07-17T12:31:23;25.73;;;14.07;;
22606;SDS011;11470;20.968;105.834;2022-07-17T12:36:29;21.92;;;12.05;;
22606;SDS011;11470;20.968;105.834;2022-07-17T12:46:41;22.02;;;14.90;;
22606;SDS011;11470;20.968;105.834;2022-07-17T12:51:48;20.83;;;13.30;;
22606;SDS011;11470;20.968;105.834;2022-07-17T12:56:55;20.17;;;13.63;;
22606;SDS011;11470;20.968;105.834;2022-07-17T13:02:00;20.85;;;11.52;;
22606;SDS011;11470;20.968;105.834;2022-07-17T13:07:06;24.67;;;14.05;;
22606;SDS011;11470;20.968;105.834;2022-07-17T13:12:12;20.92;;;14.40;;
22606;SDS011;11470;20.968;105.834;2022-07-17T13:17:19;23.95;;;12.02;;
22606;SDS011;11470;20.968;105.834;2022-07-17T13:22:25;23.48;;;12.55;;
22606;SDS011;11470;20.968;105.834;2022-07-17T13:27:30;16.13;;;9.13;;
22606;SDS011;11470;20.968;105.834;2022-07-17T13:32:35;16.77;;;11.07;;
22606;SDS011;11470;20.968;105.834;2022-07-17T13:37:42;20.48;;;10.50;;
22606;SDS011;11470;20.968;105.834;2022-07-17T13:42:48;14.30;;;9.70;;
22606;SDS011;11470;20.968;105.834;2022-07-17T13:47:53;17.55;;;10.80;;
22606;SDS011;11470;20.968;105.834;2022-07-17T13:52:59;23.33;;;11.60;;
22606;SDS011;11470;20.968;105.834;2022-07-17T13:58:05;18.63;;;12.02;;
22606;SDS011;11470;20.968;105.834;2022-07-17T14:03:13;13.18;;;7.13;;
22606;SDS011;11470;20.968;105.834;2022-07-17T14:08:19;18.42;;;10.60;;
22606;SDS011;11470;20.968;105.834;2022-07-17T14:13:25;19.55;;;9.25;;
22606;SDS011;11470;20.968;105.834;2022-07-17T14:18:31;9.45;;;5.07;;
22606;SDS011;11470;20.968;105.834;2022-07-17T14:23:37;13.10;;;8.70;;
22606;SDS011;11470;20.968;105.834;2022-07-17T14:28:43;15.35;;;9.65;;
22606;SDS011;11470;20.968;105.834;2022-07-17T14:33:49;11.38;;;6.97;;
22606;SDS011;11470;20.968;105.834;2022-07-17T14:38:56;15.98;;;8.90;;
22606;SDS011;11470;20.968;105.834;2022-07-17T14:44:04;16.17;;;9.40;;
22606;SDS011;11470;20.968;105.834;2022-07-17T14:49:11;19.20;;;9.68;;
22606;SDS011;11470;20.968;105.834;2022-07-17T14:54:43;15.60;;;6.85;;
22606;SDS011;11470;20.968;105.834;2022-07-17T14:59:58;15.43;;;10.55;;
22606;SDS011;11470;20.968;105.834;2022-07-17T15:05:23;12.32;;;9.10;;
22606;SDS011;11470;20.968;105.834;2022-07-17T15:10:32;14.98;;;9.60;;
22606;SDS011;11470;20.968;105.834;2022-07-17T15:15:41;9.48;;;4.45;;
22606;SDS011;11470;20.968;105.834;2022-07-17T15:20:47;14.25;;;9.63;;
22606;SDS011;11470;20.968;105.834;2022-07-17T15:25:52;13.90;;;8.48;;
22606;SDS011;11470;20.968;105.834;2022-07-17T15:31:12;15.95;;;9.30;;
22606;SDS011;11470;20.968;105.834;2022-07-17T15:36:17;17.63;;;10.43;;
22606;SDS011;11470;20.968;105.834;2022-07-17T15:41:29;16.15;;;9.25;;
22606;SDS011;11470;20.968;105.834;2022-07-17T15:46:35;9.75;;;6.05;;
22606;SDS011;11470;20.968;105.834;2022-07-17T15:51:45;14.40;;;9.80;;
22606;SDS011;11470;20.968;105.834;2022-07-17T15:56:52;11.00;;;6.30;;
22606;SDS011;11470;20.968;105.834;2022-07-17T16:01:58;11.35;;;7.45;;
22606;SDS011;11470;20.968;105.834;2022-07-17T16:12:08;12.70;;;6.22;;
22606;SDS011;11470;20.968;105.834;2022-07-17T16:17:14;18.20;;;9.00;;
22606;SDS011;11470;20.968;105.834;2022-07-17T16:22:21;13.90;;;7.78;;
22606;SDS011;11470;20.968;105.834;2022-07-17T16:27:27;12.35;;;7.53;;
22606;SDS011;11470;20.968;105.834;2022-07-17T16:32:41;14.63;;;7.95;;
22606;SDS011;11470;20.968;105.834;2022-07-17T16:37:46;13.63;;;8.75;;
22606;SDS011;11470;20.968;105.834;2022-07-17T16:42:52;14.07;;;8.68;;
22606;SDS011;11470;20.968;105.834;2022-07-17T16:47:57;16.38;;;8.43;;
22606;SDS011;11470;20.968;105.834;2022-07-17T16:53:03;15.85;;;9.15;;
22606;SDS011;11470;20.968;105.834;2022-07-17T16:58:08;15.18;;;8.88;;
22606;SDS011;11470;20.968;105.834;2022-07-17T17:03:14;14.90;;;9.43;;
22606;SDS011;11470;20.968;105.834;2022-07-17T17:08:20;14.85;;;8.65;;
22606;SDS011;11470;20.968;105.834;2022-07-17T17:13:25;13.25;;;8.30;;
22606;SDS011;11470;20.968;105.834;2022-07-17T17:18:31;18.42;;;9.02;;
22606;SDS011;11470;20.968;105.834;2022-07-17T17:28:41;14.48;;;9.25;;
22606;SDS011;11470;20.968;105.834;2022-07-17T17:33:47;17.50;;;10.77;;
22606;SDS011;11470;20.968;105.834;2022-07-17T17:38:53;16.08;;;9.98;;
22606;SDS011;11470;20.968;105.834;2022-07-17T17:43:59;20.85;;;10.57;;
22606;SDS011;11470;20.968;105.834;2022-07-17T17:49:05;17.35;;;10.73;;
22606;SDS011;11470;20.968;105.834;2022-07-17T17:54:10;13.15;;;9.00;;
22606;SDS011;11470;20.968;105.834;2022-07-17T17:59:15;14.45;;;8.40;;
22606;SDS011;11470;20.968;105.834;2022-07-17T18:04:21;16.45;;;9.68;;
22606;SDS011;11470;20.968;105.834;2022-07-17T18:14:31;15.93;;;9.10;;
22606;SDS011;11470;20.968;105.834;2022-07-17T18:19:38;18.55;;;9.25;;
22606;SDS011;11470;20.968;105.834;2022-07-17T18:29:48;17.08;;;8.73;;
22606;SDS011;11470;20.968;105.834;2022-07-17T18:34:53;15.23;;;8.98;;
22606;SDS011;11470;20.968;105.834;2022-07-17T18:39:59;8.73;;;5.38;;
22606;SDS011;11470;20.968;105.834;2022-07-17T18:45:05;16.35;;;8.98;;
22606;SDS011;11470;20.968;105.834;2022-07-17T18:50:12;14.90;;;7.97;;
22606;SDS011;11470;20.968;105.834;2022-07-17T18:55:17;16.83;;;8.15;;
22606;SDS011;11470;20.968;105.834;2022-07-17T19:00:25;11.77;;;7.18;;
22606;SDS011;11470;20.968;105.834;2022-07-17T19:05:31;12.80;;;7.20;;
22606;SDS011;11470;20.968;105.834;2022-07-17T19:10:43;12.55;;;6.88;;
22606;SDS011;11470;20.968;105.834;2022-07-17T19:15:48;11.35;;;7.00;;
22606;SDS011;11470;20.968;105.834;2022-07-17T19:20:54;12.20;;;7.20;;
22606;SDS011;11470;20.968;105.834;2022-07-17T19:31:04;16.40;;;7.72;;
22606;SDS011;11470;20.968;105.834;2022-07-17T19:36:09;14.45;;;7.00;;
22606;SDS011;11470;20.968;105.834;2022-07-17T19:41:16;11.45;;;6.68;;
22606;SDS011;11470;20.968;105.834;2022-07-17T19:46:21;17.92;;;7.05;;
22606;SDS011;11470;20.968;105.834;2022-07-17T19:51:27;17.75;;;6.85;;
22606;SDS011;11470;20.968;105.834;2022-07-17T20:01:37;16.17;;;7.50;;
22606;SDS011;11470;20.968;105.834;2022-07-17T20:06:43;14.38;;;6.95;;
22606;SDS011;11470;20.968;105.834;2022-07-17T20:11:49;14.45;;;6.47;;
22606;SDS011;11470;20.968;105.834;2022-07-17T20:16:54;12.27;;;6.45;;
22606;SDS011;11470;20.968;105.834;2022-07-17T20:22:00;12.38;;;6.13;;
22606;SDS011;11470;20.968;105.834;2022-07-17T20:32:11;18.02;;;6.55;;
22606;SDS011;11470;20.968;105.834;2022-07-17T20:37:16;11.30;;;6.20;;
22606;SDS011;11470;20.968;105.834;2022-07-17T20:42:22;14.20;;;6.85;;
22606;SDS011;11470;20.968;105.834;2022-07-17T20:52:32;13.38;;;5.80;;
22606;SDS011;11470;20.968;105.834;2022-07-17T20:57:37;15.40;;;6.90;;
22606;SDS011;11470;20.968;105.834;2022-07-17T21:02:46;12.90;;;6.15;;
22606;SDS011;11470;20.968;105.834;2022-07-17T21:07:51;13.60;;;6.60;;
22606;SDS011;11470;20.968;105.834;2022-07-17T21:12:56;13.98;;;6.78;;
22606;SDS011;11470;20.968;105.834;2022-07-17T21:18:01;15.02;;;6.47;;
22606;SDS011;11470;20.968;105.834;2022-07-17T21:23:07;11.40;;;6.07;;
22606;SDS011;11470;20.968;105.834;2022-07-17T21:28:12;14.38;;;6.45;;
22606;SDS011;11470;20.968;105.834;2022-07-17T21:33:18;12.52;;;6.40;;
22606;SDS011;11470;20.968;105.834;2022-07-17T21:38:22;14.20;;;6.38;;
22606;SDS011;11470;20.968;105.834;2022-07-17T21:43:30;10.80;;;6.35;;
22606;SDS011;11470;20.968;105.834;2022-07-17T21:48:37;13.57;;;6.55;;
22606;SDS011;11470;20.968;105.834;2022-07-17T21:53:43;19.02;;;6.60;;
22606;SDS011;11470;20.968;105.834;2022-07-17T21:58:48;13.45;;;6.70;;
22606;SDS011;11470;20.968;105.834;2022-07-17T22:03:54;12.13;;;5.93;;
22606;SDS011;11470;20.968;105.834;2022-07-17T22:08:59;10.82;;;5.85;;
22606;SDS011;11470;20.968;105.834;2022-07-17T22:14:05;11.80;;;7.10;;
22606;SDS011;11470;20.968;105.834;2022-07-17T22:19:12;14.60;;;6.72;;
22606;SDS011;11470;20.968;105.834;2022-07-17T22:24:18;11.70;;;7.00;;
22606;SDS011;11470;20.968;105.834;2022-07-17T22:29:23;13.48;;;6.40;;
22606;SDS011;11470;20.968;105.834;2022-07-17T22:34:29;13.05;;;6.90;;
22606;SDS011;11470;20.968;105.834;2022-07-17T22:39:34;12.63;;;6.70;;
22606;SDS011;11470;20.968;105.834;2022-07-17T22:44:39;13.95;;;6.95;;
22606;SDS011;11470;20.968;105.834;2022-07-17T22:49:45;12.48;;;7.72;;
22606;SDS011;11470;20.968;105.834;2022-07-17T22:54:51;17.73;;;9.02;;
22606;SDS011;11470;20.968;105.834;2022-07-17T22:59:56;14.02;;;8.65;;
22606;SDS011;11470;20.968;105.834;2022-07-17T23:05:02;19.77;;;10.13;;
22606;SDS011;11470;20.968;105.834;2022-07-17T23:10:13;15.75;;;9.35;;
22606;SDS011;11470;20.968;105.834;2022-07-17T23:15:18;15.68;;;9.13;;
22606;SDS011;11470;20.968;105.834;2022-07-17T23:20:23;21.88;;;11.50;;
22606;SDS011;11470;20.968;105.834;2022-07-17T23:25:30;14.68;;;10.20;;
22606;SDS011;11470;20.968;105.834;2022-07-17T23:30:35;20.23;;;10.80;;
22606;SDS011;11470;20.968;105.834;2022-07-17T23:35:50;21.65;;;9.77;;
22606;SDS011;11470;20.968;105.834;2022-07-17T23:40:55;20.50;;;10.95;;
22606;SDS011;11470;20.968;105.834;2022-07-17T23:46:00;24.10;;;12.73;;
22606;SDS011;11470;20.968;105.834;2022-07-17T23:51:06;19.23;;;12.27;;
22606;SDS011;11470;20.968;105.834;2022-07-17T23:56:11;18.52;;;10.32;;
